sensor_id;sensor_type;location;lat;lon;timestamp;pressure;altitude;pressure_sealevel;temperature;humidity
63088;BME280;49173;43.164;27.786;2022-10-28T00:01:35;101872.06;;;14.17;84.61
63088;BME280;49173;43.164;27.786;2022-10-28T00:04:01;101870.59;;;14.10;84.18
63088;BME280;49173;43.164;27.786;2022-10-28T00:06:30;101868.97;;;14.06;83.76
63088;BME280;49173;43.164;27.786;2022-10-28T00:08:56;101879.06;;;14.02;83.42
63088;BME280;49173;43.164;27.786;2022-10-28T00:11:25;101877.41;;;13.98;83.03
63088;BME280;49173;43.164;27.786;2022-10-28T00:13:56;101867.78;;;13.93;82.43
63088;BME280;49173;43.164;27.786;2022-10-28T00:16:24;101867.06;;;13.89;81.96
63088;BME280;49173;43.164;27.786;2022-10-28T00:18:51;101872.84;;;13.80;81.93
63088;BME280;49173;43.164;27.786;2022-10-28T00:21:21;101865.84;;;13.76;81.99
63088;BME280;49173;43.164;27.786;2022-10-28T00:23:47;101868.66;;;13.73;82.11
63088;BME280;49173;43.164;27.786;2022-10-28T00:26:17;101861.72;;;13.67;82.27
63088;BME280;49173;43.164;27.786;2022-10-28T00:28:49;101863.59;;;13.65;82.14
63088;BME280;49173;43.164;27.786;2022-10-28T00:31:16;101862.78;;;13.63;83.03
63088;BME280;49173;43.164;27.786;2022-10-28T00:33:42;101860.09;;;13.63;83.46
63088;BME280;49173;43.164;27.786;2022-10-28T00:38:40;101858.41;;;13.61;83.22
63088;BME280;49173;43.164;27.786;2022-10-28T00:41:07;101862.09;;;13.58;83.64
63088;BME280;49173;43.164;27.786;2022-10-28T00:43:40;101847.81;;;13.56;83.53
63088;BME280;49173;43.164;27.786;2022-10-28T00:46:14;101860.44;;;13.56;82.96
63088;BME280;49173;43.164;27.786;2022-10-28T00:48:42;101852.53;;;13.51;82.55
63088;BME280;49173;43.164;27.786;2022-10-28T00:51:10;101857.84;;;13.53;83.09
63088;BME280;49173;43.164;27.786;2022-10-28T00:53:36;101854.34;;;13.51;83.47
63088;BME280;49173;43.164;27.786;2022-10-28T00:56:04;101852.59;;;13.50;83.89
63088;BME280;49173;43.164;27.786;2022-10-28T00:58:31;101855.22;;;13.51;84.09
63088;BME280;49173;43.164;27.786;2022-10-28T01:00:57;101859.75;;;13.51;83.51
63088;BME280;49173;43.164;27.786;2022-10-28T01:03:23;101856.25;;;13.49;82.88
63088;BME280;49173;43.164;27.786;2022-10-28T01:05:49;101850.16;;;13.43;82.81
63088;BME280;49173;43.164;27.786;2022-10-28T01:08:16;101850.31;;;13.40;82.70
63088;BME280;49173;43.164;27.786;2022-10-28T01:16:38;101847.88;;;13.34;83.29
63088;BME280;49173;43.164;27.786;2022-10-28T01:19:24;101842.59;;;13.31;83.48
63088;BME280;49173;43.164;27.786;2022-10-28T01:22:05;101844.50;;;13.29;83.38
63088;BME280;49173;43.164;27.786;2022-10-28T01:24:46;101849.00;;;13.29;83.00
63088;BME280;49173;43.164;27.786;2022-10-28T01:27:39;101850.97;;;13.25;83.24
63088;BME280;49173;43.164;27.786;2022-10-28T01:40:34;101839.88;;;13.11;82.95
63088;BME280;49173;43.164;27.786;2022-10-28T01:43:09;101845.34;;;13.08;82.68
63088;BME280;49173;43.164;27.786;2022-10-28T01:48:21;101842.81;;;13.05;83.13
63088;BME280;49173;43.164;27.786;2022-10-28T01:51:00;101843.75;;;13.04;83.08
63088;BME280;49173;43.164;27.786;2022-10-28T01:53:32;101852.91;;;13.00;83.15
63088;BME280;49173;43.164;27.786;2022-10-28T01:56:03;101843.00;;;13.00;83.74
63088;BME280;49173;43.164;27.786;2022-10-28T01:58:32;101846.56;;;13.01;84.09
63088;BME280;49173;43.164;27.786;2022-10-28T02:01:00;101851.88;;;13.02;84.43
63088;BME280;49173;43.164;27.786;2022-10-28T02:03:29;101858.09;;;13.04;85.02
63088;BME280;49173;43.164;27.786;2022-10-28T02:05:56;101848.19;;;13.05;85.54
63088;BME280;49173;43.164;27.786;2022-10-28T02:24:47;101847.00;;;13.12;86.92
63088;BME280;49173;43.164;27.786;2022-10-28T02:27:41;101855.13;;;13.10;87.04
63088;BME280;49173;43.164;27.786;2022-10-28T02:30:19;101848.84;;;13.10;86.93
63088;BME280;49173;43.164;27.786;2022-10-28T02:32:51;101850.75;;;13.08;87.09
63088;BME280;49173;43.164;27.786;2022-10-28T02:35:29;101854.53;;;13.04;87.12
63088;BME280;49173;43.164;27.786;2022-10-28T02:37:58;101843.75;;;13.04;87.58
63088;BME280;49173;43.164;27.786;2022-10-28T02:40:26;101843.88;;;13.01;87.42
63088;BME280;49173;43.164;27.786;2022-10-28T02:42:58;101847.56;;;12.98;87.60
63088;BME280;49173;43.164;27.786;2022-10-28T02:45:32;101850.31;;;12.97;87.73
63088;BME280;49173;43.164;27.786;2022-10-28T02:48:05;101855.69;;;12.97;87.90
63088;BME280;49173;43.164;27.786;2022-10-28T02:50:37;101858.38;;;12.97;87.68
63088;BME280;49173;43.164;27.786;2022-10-28T02:53:19;101854.81;;;12.96;87.80
63088;BME280;49173;43.164;27.786;2022-10-28T02:55:51;101853.06;;;12.95;87.98
63088;BME280;49173;43.164;27.786;2022-10-28T02:58:19;101857.50;;;12.96;88.13
63088;BME280;49173;43.164;27.786;2022-10-28T03:00:46;101861.22;;;12.93;88.20
63088;BME280;49173;43.164;27.786;2022-10-28T03:03:12;101854.09;;;12.92;88.38
63088;BME280;49173;43.164;27.786;2022-10-28T03:05:38;101856.84;;;12.91;88.27
63088;BME280;49173;43.164;27.786;2022-10-28T03:08:04;101854.19;;;12.89;88.17
63088;BME280;49173;43.164;27.786;2022-10-28T03:10:30;101856.00;;;12.89;88.14
63088;BME280;49173;43.164;27.786;2022-10-28T03:12:55;101855.13;;;12.88;88.71
63088;BME280;49173;43.164;27.786;2022-10-28T03:15:21;101855.09;;;12.90;88.84
63088;BME280;49173;43.164;27.786;2022-10-28T03:17:47;101852.41;;;12.90;89.06
63088;BME280;49173;43.164;27.786;2022-10-28T03:20:12;101856.84;;;12.91;89.27
63088;BME280;49173;43.164;27.786;2022-10-28T03:22:41;101855.03;;;12.91;89.37
63088;BME280;49173;43.164;27.786;2022-10-28T03:25:07;101861.28;;;12.92;89.28
63088;BME280;49173;43.164;27.786;2022-10-28T03:27:33;101858.59;;;12.92;89.46
63088;BME280;49173;43.164;27.786;2022-10-28T03:29:59;101861.28;;;12.92;89.52
63088;BME280;49173;43.164;27.786;2022-10-28T03:32:24;101862.16;;;12.92;89.14
63088;BME280;49173;43.164;27.786;2022-10-28T03:34:50;101863.13;;;12.91;89.42
63088;BME280;49173;43.164;27.786;2022-10-28T03:37:16;101860.34;;;12.93;89.16
63088;BME280;49173;43.164;27.786;2022-10-28T03:39:42;101869.38;;;12.92;89.19
63088;BME280;49173;43.164;27.786;2022-10-28T03:42:07;101859.59;;;12.89;89.18
63088;BME280;49173;43.164;27.786;2022-10-28T03:44:33;101865.88;;;12.90;89.14
63088;BME280;49173;43.164;27.786;2022-10-28T03:46:59;101872.25;;;12.87;89.13
63088;BME280;49173;43.164;27.786;2022-10-28T03:49:24;101866.06;;;12.85;88.99
63088;BME280;49173;43.164;27.786;2022-10-28T03:51:50;101866.06;;;12.85;89.11
63088;BME280;49173;43.164;27.786;2022-10-28T03:54:16;101870.56;;;12.85;88.78
63088;BME280;49173;43.164;27.786;2022-10-28T03:56:41;101868.75;;;12.85;88.59
63088;BME280;49173;43.164;27.786;2022-10-28T03:59:08;101862.50;;;12.85;89.01
63088;BME280;49173;43.164;27.786;2022-10-28T04:01:34;101867.00;;;12.84;89.12
63088;BME280;49173;43.164;27.786;2022-10-28T04:04:00;101860.66;;;12.85;89.28
63088;BME280;49173;43.164;27.786;2022-10-28T04:06:25;101865.03;;;12.88;89.32
63088;BME280;49173;43.164;27.786;2022-10-28T04:08:51;101869.56;;;12.87;89.24
63088;BME280;49173;43.164;27.786;2022-10-28T04:11:17;101870.50;;;12.86;89.65
63088;BME280;49173;43.164;27.786;2022-10-28T04:13:43;101870.44;;;12.88;89.58
63088;BME280;49173;43.164;27.786;2022-10-28T04:16:08;101865.03;;;12.88;89.66
63088;BME280;49173;43.164;27.786;2022-10-28T04:18:34;101869.56;;;12.87;89.68
63088;BME280;49173;43.164;27.786;2022-10-28T04:21:00;101862.41;;;12.86;89.70
63088;BME280;49173;43.164;27.786;2022-10-28T04:23:26;101866.84;;;12.87;89.36
63088;BME280;49173;43.164;27.786;2022-10-28T04:25:53;101877.63;;;12.87;89.39
63088;BME280;49173;43.164;27.786;2022-10-28T04:28:19;101873.25;;;12.85;89.38
63088;BME280;49173;43.164;27.786;2022-10-28T04:30:46;101877.78;;;12.84;89.39
63088;BME280;49173;43.164;27.786;2022-10-28T04:33:12;101874.25;;;12.82;89.52
63088;BME280;49173;43.164;27.786;2022-10-28T04:35:38;101879.69;;;12.81;89.44
63088;BME280;49173;43.164;27.786;2022-10-28T04:38:08;101877.06;;;12.79;89.03
63088;BME280;49173;43.164;27.786;2022-10-28T04:40:33;101872.72;;;12.75;89.15
63088;BME280;49173;43.164;27.786;2022-10-28T04:42:59;101876.38;;;12.74;89.09
63088;BME280;49173;43.164;27.786;2022-10-28T04:45:25;101876.50;;;12.71;88.40
63088;BME280;49173;43.164;27.786;2022-10-28T04:47:59;101878.31;;;12.71;88.36
63088;BME280;49173;43.164;27.786;2022-10-28T04:50:25;101879.31;;;12.68;88.00
63088;BME280;49173;43.164;27.786;2022-10-28T04:52:51;101882.13;;;12.65;87.62
63088;BME280;49173;43.164;27.786;2022-10-28T04:55:18;101878.50;;;12.66;87.80
63088;BME280;49173;43.164;27.786;2022-10-28T04:57:58;101888.41;;;12.65;87.61
63088;BME280;49173;43.164;27.786;2022-10-28T05:00:26;101887.66;;;12.62;87.60
63088;BME280;49173;43.164;27.786;2022-10-28T05:02:52;101890.44;;;12.59;87.78
63088;BME280;49173;43.164;27.786;2022-10-28T05:05:18;101894.91;;;12.60;87.90
63088;BME280;49173;43.164;27.786;2022-10-28T05:07:44;101890.44;;;12.59;87.75
63088;BME280;49173;43.164;27.786;2022-10-28T05:10:10;101898.66;;;12.56;87.57
63088;BME280;49173;43.164;27.786;2022-10-28T05:12:41;101889.81;;;12.52;87.45
63088;BME280;49173;43.164;27.786;2022-10-28T05:15:08;101894.31;;;12.52;87.21
63088;BME280;49173;43.164;27.786;2022-10-28T05:17:34;101893.50;;;12.50;87.18
63088;BME280;49173;43.164;27.786;2022-10-28T05:20:00;101901.59;;;12.50;87.21
63088;BME280;49173;43.164;27.786;2022-10-28T05:22:25;101904.38;;;12.47;86.82
63088;BME280;49173;43.164;27.786;2022-10-28T05:24:52;101907.06;;;12.47;86.59
63088;BME280;49173;43.164;27.786;2022-10-28T05:27:17;101897.38;;;12.43;86.60
63088;BME280;49173;43.164;27.786;2022-10-28T05:29:43;101912.66;;;12.42;86.53
63088;BME280;49173;43.164;27.786;2022-10-28T05:32:09;101912.72;;;12.41;86.67
63088;BME280;49173;43.164;27.786;2022-10-28T05:34:34;101925.47;;;12.35;86.64
63088;BME280;49173;43.164;27.786;2022-10-28T05:37:00;101929.25;;;12.30;86.89
63088;BME280;49173;43.164;27.786;2022-10-28T05:39:26;101933.69;;;12.31;87.63
63088;BME280;49173;43.164;27.786;2022-10-28T05:41:53;101934.66;;;12.30;87.83
63088;BME280;49173;43.164;27.786;2022-10-28T05:44:18;101944.38;;;12.34;88.14
63088;BME280;49173;43.164;27.786;2022-10-28T05:46:44;101947.16;;;12.31;88.30
63088;BME280;49173;43.164;27.786;2022-10-28T05:49:10;101941.06;;;12.26;88.63
63088;BME280;49173;43.164;27.786;2022-10-28T05:51:36;101952.03;;;12.21;88.97
63088;BME280;49173;43.164;27.786;2022-10-28T05:54:01;101947.50;;;12.22;89.12
63088;BME280;49173;43.164;27.786;2022-10-28T05:56:27;101954.50;;;12.27;89.51
63088;BME280;49173;43.164;27.786;2022-10-28T05:58:53;101956.13;;;12.31;89.72
63088;BME280;49173;43.164;27.786;2022-10-28T06:01:19;101962.22;;;12.36;89.94
63088;BME280;49173;43.164;27.786;2022-10-28T06:03:44;101953.09;;;12.41;89.71
63088;BME280;49173;43.164;27.786;2022-10-28T06:06:10;101966.31;;;12.47;89.69
63088;BME280;49173;43.164;27.786;2022-10-28T06:08:36;101957.19;;;12.51;89.42
63088;BME280;49173;43.164;27.786;2022-10-28T06:11:02;101957.94;;;12.54;89.18
63088;BME280;49173;43.164;27.786;2022-10-28T06:13:27;101955.97;;;12.59;89.42
63088;BME280;49173;43.164;27.786;2022-10-28T06:15:54;101958.59;;;12.61;89.57
63088;BME280;49173;43.164;27.786;2022-10-28T06:18:22;101956.50;;;12.69;89.69
63088;BME280;49173;43.164;27.786;2022-10-28T06:20:56;101957.31;;;12.71;88.86
63088;BME280;49173;43.164;27.786;2022-10-28T06:23:23;101955.34;;;12.76;88.77
63088;BME280;49173;43.164;27.786;2022-10-28T06:25:55;101961.53;;;12.78;89.31
63088;BME280;49173;43.164;27.786;2022-10-28T06:28:21;101958.72;;;12.81;89.48
63088;BME280;49173;43.164;27.786;2022-10-28T06:30:47;101953.22;;;12.84;89.22
63088;BME280;49173;43.164;27.786;2022-10-28T06:33:13;101959.28;;;12.89;88.78
63088;BME280;49173;43.164;27.786;2022-10-28T06:35:39;101957.44;;;12.91;88.81
63088;BME280;49173;43.164;27.786;2022-10-28T06:38:04;101961.06;;;12.90;88.95
63088;BME280;49173;43.164;27.786;2022-10-28T06:40:30;101961.75;;;12.96;88.80
63088;BME280;49173;43.164;27.786;2022-10-28T06:43:00;101958.00;;;13.00;88.55
63088;BME280;49173;43.164;27.786;2022-10-28T06:45:27;101957.75;;;13.06;88.59
63088;BME280;49173;43.164;27.786;2022-10-28T06:47:58;101949.53;;;13.09;88.88
63088;BME280;49173;43.164;27.786;2022-10-28T06:50:24;101956.59;;;13.13;88.60
63088;BME280;49173;43.164;27.786;2022-10-28T06:52:51;101957.31;;;13.16;87.93
63088;BME280;49173;43.164;27.786;2022-10-28T06:55:17;101948.22;;;13.21;87.88
63088;BME280;49173;43.164;27.786;2022-10-28T06:57:42;101955.34;;;13.22;87.97
63088;BME280;49173;43.164;27.786;2022-10-28T07:00:09;101958.75;;;13.27;88.57
63088;BME280;49173;43.164;27.786;2022-10-28T07:02:35;101953.22;;;13.30;88.62
63088;BME280;49173;43.164;27.786;2022-10-28T07:05:01;101962.00;;;13.35;88.50
63088;BME280;49173;43.164;27.786;2022-10-28T07:07:27;101959.19;;;13.38;88.43
63088;BME280;49173;43.164;27.786;2022-10-28T07:09:52;101965.34;;;13.41;87.39
63088;BME280;49173;43.164;27.786;2022-10-28T07:12:18;101960.75;;;13.43;87.69
63088;BME280;49173;43.164;27.786;2022-10-28T07:14:44;101962.25;;;13.51;88.12
63088;BME280;49173;43.164;27.786;2022-10-28T07:17:10;101952.06;;;13.57;88.20
63088;BME280;49173;43.164;27.786;2022-10-28T07:19:35;101960.00;;;13.62;88.79
63088;BME280;49173;43.164;27.786;2022-10-28T07:22:09;101947.03;;;13.70;88.50
63088;BME280;49173;43.164;27.786;2022-10-28T07:24:35;101958.38;;;13.78;88.23
63088;BME280;49173;43.164;27.786;2022-10-28T07:27:00;101953.69;;;13.83;87.53
63088;BME280;49173;43.164;27.786;2022-10-28T07:29:26;101948.94;;;13.88;86.43
63088;BME280;49173;43.164;27.786;2022-10-28T07:31:55;101949.97;;;13.86;86.00
63088;BME280;49173;43.164;27.786;2022-10-28T07:34:21;101949.88;;;13.87;85.32
63088;BME280;49173;43.164;27.786;2022-10-28T07:36:49;101952.47;;;13.90;85.87
63088;BME280;49173;43.164;27.786;2022-10-28T07:39:15;101945.09;;;13.94;85.84
63088;BME280;49173;43.164;27.786;2022-10-28T07:41:41;101947.75;;;13.95;86.22
63088;BME280;49173;43.164;27.786;2022-10-28T07:44:07;101942.34;;;13.95;86.22
63088;BME280;49173;43.164;27.786;2022-10-28T07:46:33;101948.63;;;13.96;85.99
63088;BME280;49173;43.164;27.786;2022-10-28T07:48:59;101950.38;;;13.97;86.20
63088;BME280;49173;43.164;27.786;2022-10-28T07:51:25;101946.84;;;13.95;86.14
63088;BME280;49173;43.164;27.786;2022-10-28T07:53:51;101950.44;;;13.95;85.90
63088;BME280;49173;43.164;27.786;2022-10-28T07:56:17;101951.09;;;14.00;85.82
63088;BME280;49173;43.164;27.786;2022-10-28T07:58:44;101955.50;;;14.03;85.46
63088;BME280;49173;43.164;27.786;2022-10-28T08:01:11;101955.56;;;14.01;84.81
63088;BME280;49173;43.164;27.786;2022-10-28T08:03:38;101952.81;;;14.03;84.43
63088;BME280;49173;43.164;27.786;2022-10-28T08:06:10;101946.59;;;14.01;83.70
63088;BME280;49173;43.164;27.786;2022-10-28T08:08:37;101945.38;;;14.08;82.05
63088;BME280;49173;43.164;27.786;2022-10-28T08:11:11;101951.44;;;14.13;80.97
63088;BME280;49173;43.164;27.786;2022-10-28T08:13:38;101946.84;;;14.15;82.23
63088;BME280;49173;43.164;27.786;2022-10-28T08:16:04;101943.94;;;14.20;82.34
63088;BME280;49173;43.164;27.786;2022-10-28T08:18:30;101949.44;;;14.18;82.96
63088;BME280;49173;43.164;27.786;2022-10-28T08:21:00;101950.31;;;14.19;82.93
63088;BME280;49173;43.164;27.786;2022-10-28T08:23:27;101948.59;;;14.16;82.85
63088;BME280;49173;43.164;27.786;2022-10-28T08:25:54;101947.59;;;14.19;82.25
63088;BME280;49173;43.164;27.786;2022-10-28T08:28:20;101946.47;;;14.24;82.30
63088;BME280;49173;43.164;27.786;2022-10-28T08:30:46;101953.38;;;14.30;82.30
63088;BME280;49173;43.164;27.786;2022-10-28T08:33:13;101953.97;;;14.37;82.10
63088;BME280;49173;43.164;27.786;2022-10-28T08:35:39;101949.34;;;14.40;82.47
63088;BME280;49173;43.164;27.786;2022-10-28T08:38:05;101954.66;;;14.42;81.39
63088;BME280;49173;43.164;27.786;2022-10-28T08:40:42;101936.50;;;14.45;81.07
63088;BME280;49173;43.164;27.786;2022-10-28T08:46:11;101951.63;;;14.49;81.31
63088;BME280;49173;43.164;27.786;2022-10-28T08:48:39;101941.34;;;14.57;81.42
63088;BME280;49173;43.164;27.786;2022-10-28T08:54:03;101945.75;;;14.79;80.71
63088;BME280;49173;43.164;27.786;2022-10-28T08:56:40;101942.53;;;14.90;81.16
63088;BME280;49173;43.164;27.786;2022-10-28T08:59:32;101948.28;;;15.01;80.64
63088;BME280;49173;43.164;27.786;2022-10-28T09:04:39;101940.03;;;15.23;79.24
63088;BME280;49173;43.164;27.786;2022-10-28T09:07:23;101938.31;;;15.39;79.15
63088;BME280;49173;43.164;27.786;2022-10-28T09:09:50;101941.44;;;15.49;76.76
63088;BME280;49173;43.164;27.786;2022-10-28T09:15:31;101938.94;;;15.63;75.25
63088;BME280;49173;43.164;27.786;2022-10-28T09:18:21;101932.91;;;15.75;74.68
63088;BME280;49173;43.164;27.786;2022-10-28T09:21:00;101937.78;;;15.86;74.22
63088;BME280;49173;43.164;27.786;2022-10-28T09:23:36;101925.56;;;15.95;73.40
63088;BME280;49173;43.164;27.786;2022-10-28T09:26:17;101928.56;;;16.06;73.15
63088;BME280;49173;43.164;27.786;2022-10-28T09:29:16;101919.13;;;16.14;71.82
63088;BME280;49173;43.164;27.786;2022-10-28T09:31:48;101915.13;;;16.22;71.33
63088;BME280;49173;43.164;27.786;2022-10-28T09:37:21;101905.53;;;16.32;69.77
63088;BME280;49173;43.164;27.786;2022-10-28T09:39:51;101906.25;;;16.35;68.25
63088;BME280;49173;43.164;27.786;2022-10-28T09:42:24;101901.69;;;16.36;67.71
63088;BME280;49173;43.164;27.786;2022-10-28T09:45:01;101902.94;;;16.46;68.50
63088;BME280;49173;43.164;27.786;2022-10-28T09:47:35;101897.97;;;16.54;68.59
63088;BME280;49173;43.164;27.786;2022-10-28T09:50:05;101887.50;;;16.64;67.81
63088;BME280;49173;43.164;27.786;2022-10-28T09:53:05;101882.53;;;16.72;67.21
63088;BME280;49173;43.164;27.786;2022-10-28T09:55:34;101881.31;;;16.78;66.56
63088;BME280;49173;43.164;27.786;2022-10-28T09:58:02;101880.19;;;16.82;65.89
63088;BME280;49173;43.164;27.786;2022-10-28T10:00:28;101874.41;;;16.88;65.68
63088;BME280;49173;43.164;27.786;2022-10-28T10:02:56;101870.63;;;16.90;66.05
63088;BME280;49173;43.164;27.786;2022-10-28T10:05:22;101869.41;;;16.96;64.53
63088;BME280;49173;43.164;27.786;2022-10-28T10:08:03;101875.34;;;17.02;64.01
63088;BME280;49173;43.164;27.786;2022-10-28T10:10:45;101864.34;;;17.06;63.40
63088;BME280;49173;43.164;27.786;2022-10-28T10:13:14;101861.19;;;17.13;62.53
63088;BME280;49173;43.164;27.786;2022-10-28T10:15:45;101852.19;;;17.13;62.76
63088;BME280;49173;43.164;27.786;2022-10-28T10:18:17;101860.03;;;17.17;60.70
63088;BME280;49173;43.164;27.786;2022-10-28T10:23:35;101847.88;;;17.09;58.94
63088;BME280;49173;43.164;27.786;2022-10-28T10:26:13;101845.78;;;17.14;58.64
63088;BME280;49173;43.164;27.786;2022-10-28T10:28:48;101850.22;;;17.15;58.66
63088;BME280;49173;43.164;27.786;2022-10-28T10:31:25;101846.00;;;17.25;59.64
63088;BME280;49173;43.164;27.786;2022-10-28T10:33:56;101844.88;;;17.29;60.17
63088;BME280;49173;43.164;27.786;2022-10-28T10:36:24;101842.75;;;17.34;59.37
63088;BME280;49173;43.164;27.786;2022-10-28T10:38:55;101838.97;;;17.37;59.49
63088;BME280;49173;43.164;27.786;2022-10-28T10:41:40;101836.88;;;17.42;59.38
63088;BME280;49173;43.164;27.786;2022-10-28T10:49:28;101817.94;;;17.40;59.13
63088;BME280;49173;43.164;27.786;2022-10-28T10:51:56;101820.28;;;17.46;59.30
63088;BME280;49173;43.164;27.786;2022-10-28T10:54:30;101824.47;;;17.52;59.31
63088;BME280;49173;43.164;27.786;2022-10-28T10:57:16;101820.63;;;17.56;59.62
63088;BME280;49173;43.164;27.786;2022-10-28T10:59:45;101822.88;;;17.64;60.31
63088;BME280;49173;43.164;27.786;2022-10-28T11:04:51;101826.16;;;17.69;59.40
63088;BME280;49173;43.164;27.786;2022-10-28T11:07:18;101820.72;;;17.69;59.73
63088;BME280;49173;43.164;27.786;2022-10-28T11:09:47;101821.63;;;17.69;59.63
63088;BME280;49173;43.164;27.786;2022-10-28T11:12:32;101815.28;;;17.69;59.32
63088;BME280;49173;43.164;27.786;2022-10-28T11:15:02;101810.47;;;17.74;59.34
63088;BME280;49173;43.164;27.786;2022-10-28T11:17:31;101808.16;;;17.82;58.77
63088;BME280;49173;43.164;27.786;2022-10-28T11:20:20;101814.00;;;17.90;60.71
63088;BME280;49173;43.164;27.786;2022-10-28T11:23:13;101818.66;;;18.02;61.14
63088;BME280;49173;43.164;27.786;2022-10-28T11:25:45;101813.59;;;18.10;61.44
63088;BME280;49173;43.164;27.786;2022-10-28T11:33:48;101812.56;;;18.13;61.31
63088;BME280;49173;43.164;27.786;2022-10-28T11:36:24;101814.09;;;18.03;61.58
63088;BME280;49173;43.164;27.786;2022-10-28T11:41:48;101808.66;;;17.89;62.05
63088;BME280;49173;43.164;27.786;2022-10-28T11:54:52;101796.38;;;17.97;61.20
63088;BME280;49173;43.164;27.786;2022-10-28T12:06:08;101804.19;;;18.02;61.55
63088;BME280;49173;43.164;27.786;2022-10-28T12:09:22;101800.13;;;18.09;60.87
63088;BME280;49173;43.164;27.786;2022-10-28T12:11:50;101789.06;;;18.12;61.03
63088;BME280;49173;43.164;27.786;2022-10-28T12:14:28;101790.44;;;18.19;60.48
63088;BME280;49173;43.164;27.786;2022-10-28T12:17:09;101789.25;;;18.23;61.17
63088;BME280;49173;43.164;27.786;2022-10-28T12:20:07;101790.97;;;18.24;61.02
63088;BME280;49173;43.164;27.786;2022-10-28T12:22:53;101790.91;;;18.26;61.11
63088;BME280;49173;43.164;27.786;2022-10-28T12:25:23;101789.13;;;18.25;61.46
63088;BME280;49173;43.164;27.786;2022-10-28T12:27:52;101781.88;;;18.25;61.36
63088;BME280;49173;43.164;27.786;2022-10-28T12:30:26;101789.53;;;18.33;61.39
63088;BME280;49173;43.164;27.786;2022-10-28T12:32:57;101788.56;;;18.34;61.46
63088;BME280;49173;43.164;27.786;2022-10-28T12:35:31;101783.22;;;18.32;61.26
63088;BME280;49173;43.164;27.786;2022-10-28T12:38:15;101778.47;;;18.36;61.82
63088;BME280;49173;43.164;27.786;2022-10-28T12:41:55;101784.59;;;18.39;61.54
63088;BME280;49173;43.164;27.786;2022-10-28T12:43:58;101784.97;;;18.33;62.22
63088;BME280;49173;43.164;27.786;2022-10-28T12:49:30;101785.06;;;18.32;62.55
63088;BME280;49173;43.164;27.786;2022-10-28T12:52:07;101788.75;;;18.31;62.40
63088;BME280;49173;43.164;27.786;2022-10-28T12:55:22;101784.09;;;18.33;62.17
63088;BME280;49173;43.164;27.786;2022-10-28T12:57:54;101783.69;;;18.25;62.54
63088;BME280;49173;43.164;27.786;2022-10-28T13:00:28;101774.59;;;18.26;62.54
63088;BME280;49173;43.164;27.786;2022-10-28T13:03:05;101781.88;;;18.25;62.52
63088;BME280;49173;43.164;27.786;2022-10-28T13:15:16;101772.78;;;18.12;62.53
63088;BME280;49173;43.164;27.786;2022-10-28T13:28:14;101781.31;;;18.06;62.41
63088;BME280;49173;43.164;27.786;2022-10-28T13:30:58;101782.47;;;18.02;62.40
63088;BME280;49173;43.164;27.786;2022-10-28T13:33:27;101776.06;;;18.03;62.46
63088;BME280;49173;43.164;27.786;2022-10-28T13:36:10;101781.69;;;18.00;62.32
63088;BME280;49173;43.164;27.786;2022-10-28T13:38:41;101779.09;;;17.98;62.40
63088;BME280;49173;43.164;27.786;2022-10-28T13:41:10;101781.41;;;17.90;62.68
63088;BME280;49173;43.164;27.786;2022-10-28T13:49:25;101775.44;;;17.55;63.96
63088;BME280;49173;43.164;27.786;2022-10-28T13:52:24;101773.09;;;17.49;64.48
63088;BME280;49173;43.164;27.786;2022-10-28T13:59:56;101774.88;;;17.64;64.09
63088;BME280;49173;43.164;27.786;2022-10-28T14:02:47;101771.44;;;17.61;63.76
63088;BME280;49173;43.164;27.786;2022-10-28T14:05:16;101771.44;;;17.61;64.27
63088;BME280;49173;43.164;27.786;2022-10-28T14:07:53;101771.38;;;17.62;64.06
63088;BME280;49173;43.164;27.786;2022-10-28T14:10:25;101777.56;;;17.64;64.29
63088;BME280;49173;43.164;27.786;2022-10-28T14:13:01;101772.31;;;17.61;64.50
63088;BME280;49173;43.164;27.786;2022-10-28T14:15:33;101772.31;;;17.61;64.31
63088;BME280;49173;43.164;27.786;2022-10-28T14:18:20;101774.25;;;17.59;64.44
63088;BME280;49173;43.164;27.786;2022-10-28T14:41:42;101776.47;;;17.08;66.09
63088;BME280;49173;43.164;27.786;2022-10-28T14:49:54;101781.91;;;17.08;65.85
63088;BME280;49173;43.164;27.786;2022-10-28T14:52:22;101777.44;;;17.07;65.92
63088;BME280;49173;43.164;27.786;2022-10-28T14:54:52;101774.72;;;17.07;65.78
63088;BME280;49173;43.164;27.786;2022-10-28T14:57:29;101782.97;;;17.06;65.98
63088;BME280;49173;43.164;27.786;2022-10-28T14:59:55;101776.94;;;17.00;66.19
63088;BME280;49173;43.164;27.786;2022-10-28T15:02:30;101778.78;;;17.00;66.04
63088;BME280;49173;43.164;27.786;2022-10-28T15:05:03;101778.94;;;16.97;66.13
63088;BME280;49173;43.164;27.786;2022-10-28T15:07:38;101783.69;;;16.93;66.06
63088;BME280;49173;43.164;27.786;2022-10-28T15:10:20;101784.81;;;16.89;66.26
63088;BME280;49173;43.164;27.786;2022-10-28T15:12:47;101781.44;;;16.86;66.47
63088;BME280;49173;43.164;27.786;2022-10-28T15:15:26;101785.25;;;16.82;66.70
63088;BME280;49173;43.164;27.786;2022-10-28T15:17:52;101794.81;;;16.73;66.36
63088;BME280;49173;43.164;27.786;2022-10-28T15:20:30;101790.50;;;16.69;66.64
63088;BME280;49173;43.164;27.786;2022-10-28T15:25:40;101782.28;;;16.55;66.69
63088;BME280;49173;43.164;27.786;2022-10-28T15:28:12;101789.63;;;16.53;67.17
63088;BME280;49173;43.164;27.786;2022-10-28T15:30:40;101795.31;;;16.48;67.29
63088;BME280;49173;43.164;27.786;2022-10-28T15:33:18;101788.22;;;16.45;67.44